Date,TemperatureHighF,TemperatureAvgF,TemperatureLowF,DewpointHighF,DewpointAvgF,DewpointLowF,HumidityHigh,HumidityAvg,HumidityLow,PressureMaxIn,PressureMinIn,WindSpeedMaxMPH,WindSpeedAvgMPH,GustSpeedMaxMPH,PrecipitationSumIn
2013-2-1,68.9,51.6,40.3,47.6,43.9,38.7,98,78,46,30.29,30.14,7,1,0,0.00
2013-2-2,72.5,55.9,41.4,58.1,50.3,40.9,98,84,53,30.23,30.00,8,2,0,0.00
2013-2-3,70.7,56.9,43.7,55.5,44.8,31.5,98,70,24,30.18,29.96,8,2,0,0.00
2013-2-4,63.5,53.4,42.3,58.0,50.8,41.2,98,91,70,29.99,29.79,7,2,0,0.04
2013-2-5,75.4,62.5,55.8,67.0,60.5,55.2,98,94,74,29.92,29.78,5,1,0,0.01
2013-2-6,66.7,59.4,52.5,65.8,58.6,52.0,98,98,93,29.99,29.79,10,3,0,0.26
2013-2-7,70.5,60.6,53.6,65.4,59.3,53.0,98,96,83,29.85,29.65,8,2,0,1.88
2013-2-8,72.5,59.4,52.5,66.0,57.5,52.0,98,94,75,30.04,29.81,9,3,0,0.00
2013-2-9,64.4,58.0,50.2,61.7,56.6,49.7,98,95,86,30.10,29.88,9,5,0,0.01
2013-2-10,77.5,70.7,61.2,75.7,70.0,60.6,98,97,93,29.89,29.69,13,5,0,0.02
2013-2-11,71.6,59.7,55.4,71.0,59.1,54.8,98,98,98,29.99,29.79,10,4,0,1.19
2013-2-12,69.4,60.0,54.9,68.8,59.4,54.3,98,98,98,29.91,29.56,13,4,0,0.49
2013-2-13,57.7,51.4,41.2,54.6,48.9,40.7,98,91,74,29.97,29.73,19,4,0,0.00
2013-2-14,63.0,48.2,35.8,47.6,42.6,35.3,98,83,52,30.05,29.89,7,1,0,0.00
2013-2-15,68.7,52.8,35.4,49.6,43.7,34.9,98,74,46,30.08,29.92,8,3,0,0.00
2013-2-16,54.7,47.2,35.1,45.3,34.1,27.1,94,63,35,30.22,30.04,14,4,0,0.00
2013-2-17,65.3,49.2,33.3,45.6,39.3,30.4,98,71,46,30.24,30.05,10,3,0,0.00
2013-2-18,67.3,56.9,40.5,64.9,55.1,40.0,98,94,79,30.10,29.79,11,4,0,0.19
2013-2-19,67.8,58.9,46.6,64.0,46.8,31.3,98,69,32,30.13,29.81,21,5,0,0.80
2013-2-20,60.8,51.2,40.8,46.2,37.6,32.2,76,61,40,30.13,29.87,14,5,0,0.00
2013-2-21,72.7,63.2,52.2,72.1,60.0,45.1,98,90,70,29.90,29.60,17,6,0,0.33
2013-2-22,71.2,62.2,54.5,70.6,58.2,53.9,98,88,64,29.86,29.69,6,3,0,1.45
2013-2-23,64.2,56.3,51.6,59.0,55.0,51.1,98,95,82,29.86,29.72,6,2,0,0.01
2013-2-24,72.3,58.5,45.0,63.4,55.7,44.5,98,91,71,29.86,29.58,10,4,0,0.95
2013-2-25,66.4,62.6,57.4,65.8,60.8,45.6,98,94,60,29.58,29.28,13,5,0,1.89
2013-2-26,61.2,53.9,45.9,48.2,44.4,38.9,96,71,59,29.81,29.44,14,5,0,0.00
2013-2-27,72.3,57.8,43.7,56.5,48.1,43.2,98,74,40,29.94,29.77,9,3,0,0.00
2013-2-28,54.0,48.7,42.6,43.3,38.8,36.2,90,69,54,30.06,29.90,10,3,0,0.00